Winooski, Vermont
Current Conditions -  °F | °C
As of 3:54 PM on Thursday 20 Nov 2014 (Local Time) from KBTV Reporting Station
Broken Clouds Broken Clouds  
Wind Chill: -4°   Ceiling: 5500
Heat Index: -1°   Visibility: 10mi
Dew Point: -7°   Wind: 6mph
Humidity: 64%   Direction: 290°WNW
Pressure: 29.77"   Gusts: NA
Location:  44.49°N, 73.19°W
Report Text: KBTV 202054Z 29005KT 10SM SCT036 BKN055 BKN070 M01/M07 A2977 RMK AO2 SNB1957E28 SLP085 VCSH P0000 60000 T10061067 51014
Loading
Personal Weather Stations






























Interactive Weather Map New forecast layout! Learn more

10-Day Weather Forecast

Advertisements
Track Severe Weather on mobile